Time;durP1;ratioP1;P1;durP2;ratioP2;P2;SDS_P1;SDS_P2;PMS_P1;PMS_P2;Temp;Humidity;BMP_temperature;BMP_pressure;BME280_temperature;BME280_humidity;BME280_pressure;Samples;Min_cycle;Max_cycle;Signal;HPM_P1;HPM_P2
2022/01/23 00:00:16;;;;;;;16.17;8.77;;;;;;;;;;5034981;28;20018;-70
2022/01/23 00:03:06;;;;;;;12.90;8.30;;;;;;;;;;5035680;28;20488;-71
2022/01/23 00:05:52;;;;;;;13.73;8.13;;;;;;;;;;5034661;28;20140;-71
2022/01/23 00:08:38;;;;;;;14.70;9.35;;;;;;;;;;5034162;28;20028;-71
2022/01/23 00:11:26;;;;;;;13.23;8.45;;;;;;;;;;5034313;28;20024;-71
2022/01/23 00:17:22;;;;;;;14.60;8.77;;;;;;;;;;5034761;28;20021;-71
2022/01/23 00:20:09;;;;;;;13.25;8.07;;;;;;;;;;5034707;28;20047;-71
2022/01/23 00:22:58;;;;;;;13.88;8.93;;;;;;;;;;5034454;28;20033;-71
2022/01/23 00:31:52;;;;;;;16.00;8.02;;;;;;;;;;5033375;28;20444;-72
2022/01/23 00:34:38;;;;;;;12.73;7.75;;;;;;;;;;5034068;28;20025;-72
2022/01/23 00:37:25;;;;;;;14.18;8.55;;;;;;;;;;5034063;28;20514;-71
2022/01/23 00:40:11;;;;;;;13.32;7.90;;;;;;;;;;5033317;28;20045;-70
2022/01/23 00:42:58;;;;;;;15.70;9.15;;;;;;;;;;5034434;28;20017;-77
2022/01/23 00:45:48;;;;;;;12.05;7.47;;;;;;;;;;5033354;28;20036;-71
2022/01/23 00:48:36;;;;;;;;;;;;;;;;;;5033731;28;20053;-71
2022/01/23 00:51:22;;;;;;;12.98;7.05;;;;;;;;;;5032889;28;19913;-70
2022/01/23 00:54:09;;;;;;;15.52;8.20;;;;;;;;;;5033752;28;20036;-71
2022/01/23 00:56:55;;;;;;;13.32;8.45;;;;;;;;;;5033211;28;20029;-71
2022/01/23 00:59:40;;;;;;;15.45;8.55;;;;;;;;;;5032850;28;20373;-72
2022/01/23 01:02:26;;;;;;;15.63;9.32;;;;;;;;;;5033684;28;20464;-70
2022/01/23 01:05:12;;;;;;;13.77;8.10;;;;;;;;;;5033960;28;20028;-74
2022/01/23 01:07:58;;;;;;;13.02;7.25;;;;;;;;;;5033006;28;20032;-74
2022/01/23 01:11:09;;;;;;;11.57;7.68;;;;;;;;;;5032942;28;20032;-74
2022/01/23 01:32:11;;;;;;;11.48;7.85;;;;;;;;;;5032180;28;20077;-75
2022/01/23 01:35:05;;;;;;;12.75;8.27;;;;;;;;;;5033583;28;20040;-75
2022/01/23 01:37:51;;;;;;;12.13;7.97;;;;;;;;;;5033013;28;20049;-71
2022/01/23 01:40:37;;;;;;;13.07;8.00;;;;;;;;;;5032564;28;20078;-71
2022/01/23 01:43:22;;;;;;;12.07;7.60;;;;;;;;;;5032824;28;20389;-74
2022/01/23 01:46:08;;;;;;;11.93;7.45;;;;;;;;;;5032032;28;20053;-74
2022/01/23 01:48:54;;;;;;;12.15;7.78;;;;;;;;;;5033257;28;20095;-77
2022/01/23 01:51:40;;;;;;;13.55;8.48;;;;;;;;;;5032348;28;20042;-77
2022/01/23 01:54:28;;;;;;;12.05;7.78;;;;;;;;;;5032328;28;20022;-75
2022/01/23 01:57:14;;;;;;;14.50;9.50;;;;;;;;;;5032806;28;20018;-75
2022/01/23 02:00:38;;;;;;;14.88;8.55;;;;;;;;;;5033279;28;20373;-75
2022/01/23 02:08:20;;;;;;;14.88;9.73;;;;;;;;;;5033037;28;20030;-74
2022/01/23 02:09:45;;;;;;;14.02;8.75;;;;;;;;;;5032059;28;20022;-75
2022/01/23 02:25:14;;;;;;;13.73;8.50;;;;;;;;;;4953259;29;20079;-71
2022/01/23 02:52:51;;;;;;;15.77;8.55;;;;;;;;;;5032816;28;20037;-71
2022/01/23 02:55:42;;;;;;;;;;;;;;;;;;5034743;28;20040;-71
2022/01/23 02:58:47;;;;;;;14.00;8.70;;;;;;;;;;5035148;28;20360;-71
2022/01/23 03:01:34;;;;;;;13.23;7.90;;;;;;;;;;5035732;28;20388;-72
2022/01/23 03:04:22;;;;;;;12.57;6.95;;;;;;;;;;5034246;28;20026;-71
2022/01/23 03:09:59;;;;;;;12.18;8.02;;;;;;;;;;5036469;28;20036;-71
2022/01/23 03:16:16;;;;;;;16.20;8.60;;;;;;;;;;5035183;28;20465;-69
2022/01/23 03:31:42;;;;;;;12.98;8.93;;;;;;;;;;5036102;28;20050;-70
2022/01/23 03:33:56;;;;;;;14.15;8.95;;;;;;;;;;5032592;28;20084;-68
2022/01/23 03:36:42;;;;;;;13.43;8.13;;;;;;;;;;5036229;28;20029;-69
2022/01/23 03:39:27;;;;;;;14.82;8.82;;;;;;;;;;5034851;28;20135;-68
2022/01/23 03:42:13;;;;;;;15.20;8.73;;;;;;;;;;5036159;28;20017;-68
2022/01/23 03:48:02;;;;;;;13.50;8.90;;;;;;;;;;5036174;28;20025;-72
2022/01/23 03:50:47;;;;;;;14.35;8.90;;;;;;;;;;5035123;28;20091;-74
2022/01/23 03:53:33;;;;;;;14.43;8.23;;;;;;;;;;5034330;28;20087;-73
2022/01/23 03:56:21;;;;;;;16.00;8.68;;;;;;;;;;5034398;28;20017;-73
2022/01/23 03:59:07;;;;;;;14.43;8.38;;;;;;;;;;5033973;28;20461;-74
2022/01/23 04:01:53;;;;;;;15.30;9.15;;;;;;;;;;5035614;28;20033;-73
2022/01/23 04:04:39;;;;;;;16.77;10.15;;;;;;;;;;5033130;28;20029;-73
2022/01/23 04:07:28;;;;;;;15.65;9.05;;;;;;;;;;5032781;28;20032;-71
2022/01/23 04:10:15;;;;;;;15.27;8.77;;;;;;;;;;5035326;28;20485;-68
2022/01/23 05:04:41;;;;;;;15.85;8.43;;;;;;;;;;5034636;28;20017;-72
2022/01/23 05:07:29;;;;;;;13.23;8.55;;;;;;;;;;5032114;28;20022;-71
2022/01/23 05:10:15;;;;;;;13.38;7.18;;;;;;;;;;5033516;28;20043;-71
2022/01/23 05:13:01;;;;;;;14.80;8.93;;;;;;;;;;5032939;28;20159;-72
2022/01/23 05:15:47;;;;;;;15.52;8.48;;;;;;;;;;5032824;28;20025;-72
2022/01/23 05:18:35;;;;;;;15.45;9.05;;;;;;;;;;5032456;28;20053;-69
2022/01/23 05:21:48;;;;;;;14.15;8.10;;;;;;;;;;5034331;28;20018;-72
2022/01/23 05:24:32;;;;;;;14.05;8.73;;;;;;;;;;5033795;28;20022;-72
2022/01/23 05:27:18;;;;;;;12.82;8.38;;;;;;;;;;5031382;28;20021;-70
2022/01/23 05:30:05;;;;;;;14.60;8.00;;;;;;;;;;5033265;28;20475;-71
2022/01/23 05:32:51;;;;;;;11.70;7.47;;;;;;;;;;5031264;28;20049;-71
2022/01/23 05:35:37;;;;;;;13.75;8.55;;;;;;;;;;5032664;28;20113;-71
2022/01/23 05:38:23;;;;;;;16.15;9.85;;;;;;;;;;5031931;28;20370;-68
2022/01/23 05:41:08;;;;;;;13.10;8.50;;;;;;;;;;5061561;23;20136;-73
2022/01/23 05:43:54;;;;;;;14.48;8.85;;;;;;;;;;5036511;28;20059;-72
2022/01/23 05:46:39;;;;;;;16.30;9.10;;;;;;;;;;5051725;28;20525;-71
2022/01/23 05:49:24;;;;;;;15.95;9.75;;;;;;;;;;5036244;28;20049;-73
2022/01/23 05:52:10;;;;;;;14.52;9.07;;;;;;;;;;5029017;28;20037;-71
2022/01/23 05:54:55;;;;;;;16.30;9.50;;;;;;;;;;5026487;28;20018;-72
2022/01/23 05:57:40;;;;;;;16.40;8.75;;;;;;;;;;5028063;28;20022;-69
2022/01/23 06:00:25;;;;;;;16.17;9.40;;;;;;;;;;5028068;28;20033;-72
2022/01/23 06:03:11;;;;;;;15.32;9.45;;;;;;;;;;5014268;28;20033;-74
2022/01/23 06:05:56;;;;;;;14.85;8.60;;;;;;;;;;5027942;28;20105;-73
2022/01/23 06:08:42;;;;;;;16.33;10.00;;;;;;;;;;5013121;28;20021;-74
2022/01/23 06:11:28;;;;;;;17.35;9.20;;;;;;;;;;5020099;28;20676;-71
2022/01/23 06:14:13;;;;;;;17.15;11.02;;;;;;;;;;5019497;28;20469;-74
2022/01/23 06:16:58;;;;;;;17.38;10.27;;;;;;;;;;5025547;28;20479;-70
2022/01/23 06:19:43;;;;;;;14.90;9.55;;;;;;;;;;5007537;28;20032;-71
2022/01/23 06:22:29;;;;;;;16.50;10.25;;;;;;;;;;5014790;28;20052;-70
2022/01/23 06:25:16;;;;;;;17.55;10.27;;;;;;;;;;5027155;28;20041;-74
2022/01/23 06:28:05;;;;;;;17.48;10.60;;;;;;;;;;5015886;28;20021;-72
2022/01/23 06:30:50;;;;;;;17.63;11.10;;;;;;;;;;5016303;28;20117;-73
2022/01/23 06:33:36;;;;;;;16.05;9.55;;;;;;;;;;5026329;28;20492;-72
2022/01/23 06:36:21;;;;;;;17.85;10.40;;;;;;;;;;5030724;28;20366;-71
2022/01/23 06:39:08;;;;;;;18.33;12.35;;;;;;;;;;5016154;28;20025;-71
2022/01/23 06:41:53;;;;;;;21.60;10.45;;;;;;;;;;5011911;28;20046;-70
2022/01/23 06:44:40;;;;;;;14.27;8.93;;;;;;;;;;5032007;28;20025;-71
2022/01/23 06:47:25;;;;;;;17.15;9.98;;;;;;;;;;5016872;28;20025;-71
2022/01/23 06:50:10;;;;;;;16.80;9.05;;;;;;;;;;5033429;28;20025;-71
2022/01/23 06:52:56;;;;;;;17.50;9.80;;;;;;;;;;5029452;28;20577;-71
2022/01/23 06:55:41;;;;;;;15.40;9.52;;;;;;;;;;5019795;28;20021;-70
2022/01/23 06:58:26;;;;;;;15.88;10.13;;;;;;;;;;5028711;28;20033;-71
2022/01/23 07:01:11;;;;;;;16.73;10.48;;;;;;;;;;5028669;28;20026;-69
2022/01/23 07:03:56;;;;;;;17.73;10.98;;;;;;;;;;5009558;28;20026;-70
2022/01/23 07:06:42;;;;;;;14.50;9.23;;;;;;;;;;5029852;28;20029;-71
2022/01/23 07:09:27;;;;;;;15.10;9.38;;;;;;;;;;5030242;28;20544;-71
2022/01/23 07:12:12;;;;;;;15.57;9.55;;;;;;;;;;5030924;28;20029;-68
2022/01/23 07:14:58;;;;;;;15.73;9.85;;;;;;;;;;5019248;28;20037;-69
2022/01/23 07:17:43;;;;;;;16.27;10.18;;;;;;;;;;5030432;28;20060;-70
2022/01/23 07:20:28;;;;;;;17.13;10.90;;;;;;;;;;5031267;28;20025;-68
2022/01/23 07:23:14;;;;;;;19.77;11.23;;;;;;;;;;5018088;28;20472;-67
2022/01/23 07:25:59;;;;;;;18.90;11.93;;;;;;;;;;5008593;28;20029;-67
2022/01/23 07:28:45;;;;;;;20.95;11.70;;;;;;;;;;5028857;28;20025;-76
2022/01/23 07:34:19;;;;;;;19.98;11.13;;;;;;;;;;5033335;28;20025;-74
2022/01/23 07:37:04;;;;;;;20.15;11.95;;;;;;;;;;5030498;28;20033;-72
2022/01/23 07:39:50;;;;;;;22.08;12.73;;;;;;;;;;5028834;28;20065;-71
2022/01/23 07:42:35;;;;;;;18.10;11.25;;;;;;;;;;5016912;28;20259;-72
2022/01/23 07:45:20;;;;;;;22.17;12.27;;;;;;;;;;5006255;28;20022;-73
2022/01/23 07:48:06;;;;;;;17.65;10.88;;;;;;;;;;5017851;28;20377;-72
2022/01/23 07:50:51;;;;;;;19.75;12.02;;;;;;;;;;5025224;28;20044;-69
2022/01/23 07:53:36;;;;;;;16.45;10.43;;;;;;;;;;5031835;28;20136;-68
2022/01/23 07:56:21;;;;;;;17.88;11.50;;;;;;;;;;5029490;28;20030;-70
2022/01/23 07:59:07;;;;;;;18.60;11.85;;;;;;;;;;5029579;28;20033;-69
2022/01/23 08:01:52;;;;;;;21.73;12.50;;;;;;;;;;5030392;28;20108;-69
2022/01/23 08:04:37;;;;;;;25.40;13.35;;;;;;;;;;5017022;28;20033;-73
2022/01/23 08:10:15;;;;;;;21.35;12.77;;;;;;;;;;5021823;28;20025;-74
2022/01/23 08:13:03;;;;;;;31.55;16.85;;;;;;;;;;5029653;28;20049;-72
2022/01/23 08:15:48;;;;;;;24.77;15.10;;;;;;;;;;5020122;28;20033;-73
2022/01/23 08:18:33;;;;;;;22.77;14.15;;;;;;;;;;5028632;28;20044;-72
2022/01/23 08:21:19;;;;;;;20.90;12.30;;;;;;;;;;5026161;28;20068;-71
2022/01/23 08:24:04;;;;;;;16.00;10.00;;;;;;;;;;5015848;28;20028;-68
2022/01/23 08:26:49;;;;;;;19.02;11.25;;;;;;;;;;5030075;28;20031;-70
2022/01/23 08:29:35;;;;;;;21.80;12.30;;;;;;;;;;5021754;28;20456;-69
2022/01/23 08:32:20;;;;;;;17.27;11.38;;;;;;;;;;5012046;28;20172;-71
2022/01/23 08:35:06;;;;;;;20.50;12.77;;;;;;;;;;5029912;28;20108;-73
2022/01/23 08:37:52;;;;;;;17.80;11.93;;;;;;;;;;5019987;28;20113;-71
2022/01/23 08:43:28;;;;;;;18.85;12.30;;;;;;;;;;5028371;28;20618;-68
2022/01/23 08:46:14;;;;;;;18.95;11.60;;;;;;;;;;5031082;28;20026;-79
2022/01/23 08:49:00;;;;;;;19.67;12.45;;;;;;;;;;5016538;28;20026;-79
2022/01/23 08:51:46;;;;;;;24.75;13.27;;;;;;;;;;5030941;28;20464;-80
2022/01/23 08:54:31;;;;;;;18.27;10.40;;;;;;;;;;5012387;28;20032;-79
2022/01/23 08:57:17;;;;;;;17.50;12.18;;;;;;;;;;5017453;28;20037;-78
2022/01/23 09:00:04;;;;;;;19.10;11.98;;;;;;;;;;5013052;28;20040;-72
2022/01/23 09:02:49;;;;;;;20.58;11.98;;;;;;;;;;5014194;28;20028;-69
2022/01/23 09:05:35;;;;;;;19.35;12.18;;;;;;;;;;5020324;28;20021;-69
2022/01/23 09:08:21;;;;;;;17.55;12.45;;;;;;;;;;5030177;28;20467;-68
2022/01/23 09:11:12;;;;;;;17.65;11.85;;;;;;;;;;5031299;28;20053;-70
2022/01/23 09:16:49;;;;;;;22.52;14.43;;;;;;;;;;5026937;28;20032;-72
2022/01/23 09:19:35;;;;;;;22.00;12.82;;;;;;;;;;5024667;28;20021;-72
2022/01/23 09:22:20;;;;;;;23.45;14.57;;;;;;;;;;5027523;28;20040;-71
2022/01/23 09:25:05;;;;;;;22.52;15.18;;;;;;;;;;5015050;28;20048;-70
2022/01/23 09:27:51;;;;;;;24.38;16.20;;;;;;;;;;5012785;28;20033;-70
2022/01/23 09:30:39;;;;;;;28.48;18.90;;;;;;;;;;5030899;28;20029;-71
2022/01/23 09:33:24;;;;;;;28.88;18.90;;;;;;;;;;5027829;28;20037;-71
2022/01/23 09:36:09;;;;;;;28.83;18.80;;;;;;;;;;5028958;28;20017;-77
2022/01/23 09:38:54;;;;;;;30.95;19.08;;;;;;;;;;5027141;28;20434;-71
2022/01/23 09:41:41;;;;;;;29.58;18.58;;;;;;;;;;5014782;28;20056;-70
2022/01/23 09:44:29;;;;;;;32.90;20.92;;;;;;;;;;5030823;28;20053;-71
2022/01/23 09:47:15;;;;;;;28.98;20.10;;;;;;;;;;5029906;28;20029;-71
2022/01/23 09:50:03;;;;;;;32.00;20.58;;;;;;;;;;5028421;28;20025;-71
2022/01/23 09:52:52;;;;;;;29.70;19.27;;;;;;;;;;5029695;28;20061;-70
2022/01/23 09:55:37;;;;;;;28.65;20.50;;;;;;;;;;5028921;28;20043;-80
2022/01/23 09:58:22;;;;;;;28.58;19.67;;;;;;;;;;5024314;28;20164;-72
2022/01/23 10:01:09;;;;;;;29.77;20.05;;;;;;;;;;5026293;28;20026;-73
2022/01/23 10:03:55;;;;;;;30.40;19.48;;;;;;;;;;5031838;28;20029;-72
2022/01/23 10:06:40;;;;;;;32.75;20.38;;;;;;;;;;5025779;28;20427;-73
2022/01/23 10:09:26;;;;;;;26.08;16.90;;;;;;;;;;5013065;28;20021;-72
2022/01/23 10:12:12;;;;;;;26.65;17.92;;;;;;;;;;5016999;28;20091;-76
2022/01/23 10:14:57;;;;;;;26.77;17.70;;;;;;;;;;5016448;28;20036;-72
2022/01/23 10:17:43;;;;;;;27.02;18.52;;;;;;;;;;5028084;28;20519;-80
2022/01/23 10:20:29;;;;;;;27.23;17.35;;;;;;;;;;5019448;28;20432;-80
2022/01/23 10:23:15;;;;;;;24.85;16.52;;;;;;;;;;5017711;28;20073;-80
2022/01/23 10:26:01;;;;;;;24.27;16.50;;;;;;;;;;5032638;28;20021;-81
2022/01/23 10:28:47;;;;;;;25.75;17.45;;;;;;;;;;5015295;28;20025;-81
2022/01/23 10:31:32;;;;;;;23.00;15.77;;;;;;;;;;5012041;28;20036;-84
2022/01/23 10:34:37;;;;;;;27.42;16.88;;;;;;;;;;5011595;28;20112;-72
2022/01/23 10:37:25;;;;;;;24.45;16.27;;;;;;;;;;5029071;28;20044;-76
2022/01/23 10:40:23;;;;;;;24.15;14.60;;;;;;;;;;5030259;28;20021;-75
2022/01/23 10:49:15;;;;;;;22.73;15.57;;;;;;;;;;5031442;28;20025;-76
2022/01/23 10:52:00;;;;;;;26.02;17.67;;;;;;;;;;5030754;28;20480;-70
2022/01/23 10:54:47;;;;;;;23.75;15.68;;;;;;;;;;5018724;28;20061;-70
2022/01/23 10:57:36;;;;;;;24.02;15.65;;;;;;;;;;5030097;28;20489;-70
2022/01/23 11:00:35;;;;;;;29.23;18.77;;;;;;;;;;5020996;28;20029;-70
2022/01/23 11:03:22;;;;;;;21.55;14.73;;;;;;;;;;5025119;28;20056;-70
2022/01/23 11:06:12;;;;;;;20.77;13.77;;;;;;;;;;5032689;28;20079;-69
2022/01/23 11:09:08;;;;;;;18.48;12.32;;;;;;;;;;5029654;28;20487;-72
2022/01/23 11:12:01;;;;;;;21.50;12.93;;;;;;;;;;5033292;28;20465;-72
2022/01/23 11:18:00;;;;;;;17.17;12.20;;;;;;;;;;5031303;28;20014;-72
2022/01/23 11:20:46;;;;;;;17.35;11.15;;;;;;;;;;5010155;28;20029;-72
2022/01/23 11:23:34;;;;;;;14.95;9.23;;;;;;;;;;5030150;28;20086;-74
2022/01/23 11:26:19;;;;;;;17.58;9.48;;;;;;;;;;5011107;28;20381;-71
2022/01/23 11:29:09;;;;;;;15.90;11.07;;;;;;;;;;5031594;28;20021;-69
2022/01/23 11:31:54;;;;;;;13.80;10.07;;;;;;;;;;5013200;28;20030;-70
2022/01/23 11:34:39;;;;;;;16.30;11.38;;;;;;;;;;5018171;28;20385;-69
2022/01/23 11:37:26;;;;;;;18.10;10.52;;;;;;;;;;5017394;28;20021;-72
2022/01/23 11:40:30;;;;;;;16.05;10.68;;;;;;;;;;5016088;28;20029;-69
2022/01/23 11:55:35;;;;;;;15.35;9.85;;;;;;;;;;5037492;28;20112;-72
2022/01/23 11:58:35;;;;;;;18.15;12.52;;;;;;;;;;5015431;28;20029;-71
2022/01/23 12:01:23;;;;;;;17.63;11.43;;;;;;;;;;5031682;28;20029;-72
2022/01/23 12:04:22;;;;;;;16.70;10.50;;;;;;;;;;5020581;28;20061;-70
2022/01/23 12:07:15;;;;;;;14.07;9.00;;;;;;;;;;5020629;28;20125;-72
2022/01/23 12:10:17;;;;;;;16.67;10.48;;;;;;;;;;5028910;28;20093;-72
2022/01/23 12:13:22;;;;;;;15.75;10.25;;;;;;;;;;5030725;28;20033;-71
2022/01/23 12:16:25;;;;;;;17.08;10.68;;;;;;;;;;5032257;28;20468;-72
2022/01/23 12:19:19;;;;;;;18.63;9.88;;;;;;;;;;5022339;28;20025;-72
2022/01/23 12:22:24;;;;;;;12.88;8.82;;;;;;;;;;5029613;28;20017;-72
2022/01/23 12:25:17;;;;;;;18.08;10.48;;;;;;;;;;5018489;28;20044;-70
2022/01/23 12:28:16;;;;;;;15.43;10.07;;;;;;;;;;5014126;28;20133;-69
2022/01/23 12:31:13;;;;;;;16.85;10.20;;;;;;;;;;5028168;28;20031;-69
2022/01/23 12:34:01;;;;;;;19.45;11.85;;;;;;;;;;5019124;28;20044;-70
2022/01/23 12:36:54;;;;;;;16.02;11.10;;;;;;;;;;5022273;28;20025;-70
2022/01/23 12:39:39;;;;;;;15.90;10.52;;;;;;;;;;5028493;28;20220;-68
2022/01/23 12:42:24;;;;;;;16.67;10.52;;;;;;;;;;5029390;28;20060;-70
2022/01/23 12:45:28;;;;;;;17.58;10.50;;;;;;;;;;5030159;28;20341;-69
2022/01/23 12:48:26;;;;;;;14.40;9.18;;;;;;;;;;5031548;28;20025;-68
2022/01/23 12:51:17;;;;;;;16.60;10.57;;;;;;;;;;5027817;28;20053;-68
2022/01/23 12:54:02;;;;;;;14.60;9.43;;;;;;;;;;5028542;28;20034;-68
2022/01/23 12:56:49;;;;;;;14.38;8.32;;;;;;;;;;5008460;28;20099;-68
2022/01/23 12:59:36;;;;;;;13.95;7.82;;;;;;;;;;5029176;28;20018;-71
2022/01/23 13:02:24;;;;;;;12.52;8.27;;;;;;;;;;5007617;28;20384;-78
2022/01/23 13:05:11;;;;;;;11.60;7.53;;;;;;;;;;5029100;28;20059;-80
2022/01/23 13:08:10;;;;;;;15.52;7.10;;;;;;;;;;5024946;28;20017;-77
2022/01/23 13:13:59;;;;;;;10.95;7.07;;;;;;;;;;5037372;28;20038;-77
2022/01/23 13:17:12;;;;;;;10.82;6.63;;;;;;;;;;5028918;28;20056;-77
2022/01/23 13:32:48;;;;;;;11.45;5.88;;;;;;;;;;5028091;28;20071;-73
2022/01/23 13:35:39;;;;;;;11.25;5.97;;;;;;;;;;5028361;28;20380;-77
2022/01/23 13:38:24;;;;;;;14.77;8.13;;;;;;;;;;5012681;28;20058;-72
2022/01/23 13:41:13;;;;;;;11.15;6.65;;;;;;;;;;5029108;28;20049;-69
2022/01/23 14:00:16;;;;;;;12.27;6.97;;;;;;;;;;5028483;28;20354;-69
2022/01/23 14:03:02;;;;;;;10.77;6.47;;;;;;;;;;5031226;28;20032;-69
2022/01/23 14:05:48;;;;;;;11.50;6.10;;;;;;;;;;5011292;28;20056;-69
2022/01/23 14:08:33;;;;;;;10.38;5.45;;;;;;;;;;5016266;28;20037;-69
2022/01/23 14:11:24;;;;;;;10.48;5.53;;;;;;;;;;5012507;28;20121;-70
2022/01/23 14:14:10;;;;;;;10.05;5.40;;;;;;;;;;5017142;28;20136;-69
2022/01/23 14:16:55;;;;;;;9.55;5.43;;;;;;;;;;5016642;28;20024;-71
2022/01/23 14:19:41;;;;;;;9.15;5.28;;;;;;;;;;5003528;28;20020;-71
2022/01/23 14:22:30;;;;;;;10.35;5.38;;;;;;;;;;5029400;28;20452;-75
2022/01/23 14:25:23;;;;;;;9.57;5.75;;;;;;;;;;5026199;28;20468;-70
2022/01/23 14:28:12;;;;;;;9.18;5.35;;;;;;;;;;5013765;28;20053;-73
2022/01/23 14:31:00;;;;;;;11.40;5.93;;;;;;;;;;5028247;28;20124;-75
2022/01/23 14:33:51;;;;;;;10.38;5.97;;;;;;;;;;5029854;28;20112;-77
2022/01/23 14:36:40;;;;;;;8.73;4.88;;;;;;;;;;5012948;28;20128;-73
2022/01/23 14:39:25;;;;;;;7.70;4.53;;;;;;;;;;5028542;28;20033;-72
2022/01/23 14:42:11;;;;;;;8.20;4.80;;;;;;;;;;5028454;28;20203;-74
2022/01/23 14:44:57;;;;;;;6.35;3.50;;;;;;;;;;5029391;28;20021;-72
2022/01/23 14:47:42;;;;;;;5.72;3.67;;;;;;;;;;5024594;28;20029;-72
2022/01/23 14:50:30;;;;;;;8.10;4.63;;;;;;;;;;5034717;28;20487;-77
2022/01/23 14:53:20;;;;;;;10.73;4.85;;;;;;;;;;4998515;28;20036;-72
2022/01/23 14:56:07;;;;;;;6.45;3.80;;;;;;;;;;5027749;28;20499;-70
2022/01/23 14:58:54;;;;;;;7.75;3.90;;;;;;;;;;5017854;28;20029;-70
2022/01/23 15:01:40;;;;;;;6.53;3.90;;;;;;;;;;5022730;28;20028;-69
2022/01/23 15:04:25;;;;;;;7.53;3.75;;;;;;;;;;5016700;28;20029;-71
2022/01/23 15:07:15;;;;;;;8.43;3.80;;;;;;;;;;5018063;28;20014;-69
2022/01/23 15:10:00;;;;;;;9.63;4.78;;;;;;;;;;5018615;28;20022;-70
2022/01/23 15:12:45;;;;;;;7.22;3.92;;;;;;;;;;5012117;28;20034;-69
2022/01/23 15:15:31;;;;;;;5.95;3.40;;;;;;;;;;5030445;28;20033;-69
2022/01/23 15:18:16;;;;;;;6.03;3.70;;;;;;;;;;5032700;28;20055;-69
2022/01/23 15:21:01;;;;;;;8.50;3.92;;;;;;;;;;5030366;28;20018;-69
2022/01/23 15:23:47;;;;;;;6.22;3.70;;;;;;;;;;5018454;28;20551;-70
2022/01/23 15:26:34;;;;;;;9.68;4.10;;;;;;;;;;5030306;28;20039;-69
2022/01/23 15:29:20;;;;;;;5.78;3.85;;;;;;;;;;5032002;28;20484;-72
2022/01/23 15:32:05;;;;;;;6.63;3.55;;;;;;;;;;5025559;28;20049;-71
2022/01/23 15:34:52;;;;;;;17.77;9.57;;;;;;;;;;5017900;28;20503;-72
2022/01/23 15:37:37;;;;;;;10.52;5.40;;;;;;;;;;5015260;28;20021;-73
2022/01/23 15:40:23;;;;;;;6.13;3.92;;;;;;;;;;5030463;28;20040;-71
2022/01/23 15:43:08;;;;;;;6.90;3.78;;;;;;;;;;5025457;28;20083;-72
2022/01/23 15:45:53;;;;;;;9.20;4.53;;;;;;;;;;5037325;28;20100;-71
2022/01/23 15:48:39;;;;;;;6.68;3.90;;;;;;;;;;5027369;28;20017;-72
2022/01/23 15:51:24;;;;;;;7.18;4.22;;;;;;;;;;5025275;28;20477;-72
2022/01/23 15:54:09;;;;;;;8.63;4.65;;;;;;;;;;5018579;28;20029;-70
2022/01/23 15:56:55;;;;;;;9.40;5.10;;;;;;;;;;5033359;28;20447;-71
2022/01/23 15:59:40;;;;;;;8.40;4.03;;;;;;;;;;5029175;28;20029;-73
2022/01/23 16:02:26;;;;;;;9.45;5.35;;;;;;;;;;5030540;28;20543;-74
2022/01/23 16:05:11;;;;;;;10.82;5.03;;;;;;;;;;5029698;28;20017;-78
2022/01/23 16:07:56;;;;;;;7.43;3.97;;;;;;;;;;5029720;28;20084;-71
2022/01/23 16:10:42;;;;;;;7.55;3.55;;;;;;;;;;5028500;28;20021;-70
2022/01/23 16:13:29;;;;;;;7.47;4.20;;;;;;;;;;5031256;28;20064;-72
2022/01/23 16:16:14;;;;;;;8.93;4.60;;;;;;;;;;5014906;28;20640;-74
2022/01/23 16:18:59;;;;;;;7.95;3.75;;;;;;;;;;5030071;28;20030;-73
2022/01/23 16:21:44;;;;;;;8.10;4.50;;;;;;;;;;5028525;28;20018;-78
2022/01/23 16:24:30;;;;;;;7.28;4.03;;;;;;;;;;5018101;28;20029;-68
2022/01/23 16:27:15;;;;;;;7.50;4.57;;;;;;;;;;4999686;28;20022;-68
2022/01/23 16:30:00;;;;;;;8.52;4.18;;;;;;;;;;5015175;28;20051;-69
2022/01/23 16:32:46;;;;;;;7.13;3.58;;;;;;;;;;5004866;28;20034;-69
2022/01/23 16:35:31;;;;;;;6.22;3.47;;;;;;;;;;5031751;28;20032;-69
2022/01/23 16:38:16;;;;;;;6.05;3.40;;;;;;;;;;5031082;28;20674;-68
2022/01/23 16:41:02;;;;;;;6.97;4.00;;;;;;;;;;5031930;28;20072;-77
2022/01/23 16:43:48;;;;;;;7.13;3.75;;;;;;;;;;5028021;28;20025;-72
2022/01/23 16:46:40;;;;;;;6.97;4.03;;;;;;;;;;5030919;28;20025;-71
2022/01/23 16:49:25;;;;;;;6.95;3.28;;;;;;;;;;5029028;28;20029;-70
2022/01/23 16:52:11;;;;;;;4.78;2.95;;;;;;;;;;4996351;28;20037;-69
2022/01/23 16:54:57;;;;;;;8.85;3.90;;;;;;;;;;5026193;28;20457;-70
2022/01/23 16:57:42;;;;;;;7.43;3.20;;;;;;;;;;5028827;28;20022;-70
2022/01/23 17:00:28;;;;;;;7.10;3.63;;;;;;;;;;5019891;28;20518;-69
2022/01/23 17:03:13;;;;;;;8.77;4.30;;;;;;;;;;5015484;28;20380;-80
2022/01/23 17:05:58;;;;;;;6.03;3.50;;;;;;;;;;5024567;28;20026;-79
2022/01/23 17:08:44;;;;;;;4.57;2.72;;;;;;;;;;5019726;28;20109;-78
2022/01/23 17:11:29;;;;;;;15.52;7.55;;;;;;;;;;5007741;28;20554;-78
2022/01/23 17:14:14;;;;;;;7.45;3.85;;;;;;;;;;5031774;28;20112;-79
2022/01/23 17:16:59;;;;;;;7.65;4.28;;;;;;;;;;5021844;28;20028;-72
2022/01/23 17:19:45;;;;;;;7.55;3.83;;;;;;;;;;5023809;28;20455;-78
2022/01/23 17:22:30;;;;;;;7.90;3.92;;;;;;;;;;5029586;28;20052;-78
2022/01/23 17:25:16;;;;;;;11.60;8.55;;;;;;;;;;5032490;28;20020;-81
2022/01/23 17:28:01;;;;;;;6.03;4.05;;;;;;;;;;5039091;28;20026;-79
2022/01/23 17:30:46;;;;;;;6.57;3.50;;;;;;;;;;5006164;28;20380;-78
2022/01/23 17:33:32;;;;;;;7.93;3.85;;;;;;;;;;5033704;28;20048;-79
2022/01/23 17:36:17;;;;;;;9.13;4.03;;;;;;;;;;5013589;28;20018;-72
2022/01/23 17:39:02;;;;;;;11.30;4.60;;;;;;;;;;5035969;28;20080;-67
2022/01/23 17:41:47;;;;;;;6.40;3.83;;;;;;;;;;5021413;28;20045;-70
2022/01/23 17:44:35;;;;;;;9.02;4.85;;;;;;;;;;5026412;28;20044;-67
2022/01/23 17:50:48;;;;;;;6.60;3.20;;;;;;;;;;5025944;28;20392;-70
2022/01/23 17:53:27;;;;;;;9.07;3.88;;;;;;;;;;5028293;28;20060;-79
2022/01/23 17:56:12;;;;;;;7.13;4.03;;;;;;;;;;5028864;28;20022;-71
2022/01/23 17:58:58;;;;;;;7.63;3.60;;;;;;;;;;5026883;28;20030;-70
2022/01/23 18:01:44;;;;;;;6.93;3.42;;;;;;;;;;5025606;28;20534;-70
2022/01/23 18:04:29;;;;;;;6.72;3.08;;;;;;;;;;5009680;28;20049;-70
2022/01/23 18:07:17;;;;;;;7.60;4.22;;;;;;;;;;5009748;28;20105;-74
2022/01/23 18:10:03;;;;;;;6.53;3.47;;;;;;;;;;5026458;28;20037;-72
2022/01/23 18:12:52;;;;;;;9.00;5.00;;;;;;;;;;5008482;28;20045;-66
2022/01/23 18:15:38;;;;;;;8.35;4.50;;;;;;;;;;5028528;28;20075;-74
2022/01/23 18:18:23;;;;;;;5.57;3.40;;;;;;;;;;5023517;28;20082;-76
2022/01/23 18:21:08;;;;;;;6.85;3.88;;;;;;;;;;5013950;28;20013;-76
2022/01/23 18:23:54;;;;;;;5.35;3.60;;;;;;;;;;5010705;28;20029;-73
2022/01/23 18:26:41;;;;;;;5.47;3.42;;;;;;;;;;5031863;28;20138;-74
2022/01/23 18:29:26;;;;;;;7.07;4.07;;;;;;;;;;5017851;28;20399;-73
2022/01/23 18:32:12;;;;;;;5.28;3.08;;;;;;;;;;5015560;28;20040;-69
2022/01/23 18:34:58;;;;;;;5.63;2.92;;;;;;;;;;5031546;28;20234;-77
2022/01/23 18:37:44;;;;;;;7.75;3.80;;;;;;;;;;5014275;28;20081;-74
2022/01/23 18:40:29;;;;;;;5.80;3.25;;;;;;;;;;5027330;28;20029;-74
2022/01/23 18:43:15;;;;;;;5.50;3.13;;;;;;;;;;5031004;28;20044;-74
2022/01/23 18:46:01;;;;;;;4.57;2.92;;;;;;;;;;5027349;28;20539;-72
2022/01/23 18:48:46;;;;;;;6.32;3.13;;;;;;;;;;5033910;28;20087;-79
2022/01/23 18:51:36;;;;;;;5.28;2.95;;;;;;;;;;5016447;28;20052;-69
2022/01/23 18:57:13;;;;;;;7.43;3.22;;;;;;;;;;5017382;28;20029;-75
2022/01/23 19:00:08;;;;;;;5.07;2.63;;;;;;;;;;5029461;28;20037;-78
2022/01/23 19:02:58;;;;;;;5.82;2.92;;;;;;;;;;5028038;28;20014;-72
2022/01/23 19:05:46;;;;;;;6.15;3.35;;;;;;;;;;5015276;28;20130;-69
2022/01/23 19:08:32;;;;;;;5.80;2.95;;;;;;;;;;5029473;28;20018;-73
2022/01/23 19:11:17;;;;;;;2.90;1.98;;;;;;;;;;5030746;28;20045;-71
2022/01/23 19:14:04;;;;;;;3.92;2.55;;;;;;;;;;5020404;28;20042;-68
2022/01/23 19:16:50;;;;;;;3.38;2.30;;;;;;;;;;5000622;28;20029;-71
2022/01/23 19:19:35;;;;;;;2.80;2.03;;;;;;;;;;5002822;28;20029;-71
2022/01/23 19:22:20;;;;;;;3.85;2.30;;;;;;;;;;5031829;28;20029;-69
2022/01/23 19:25:06;;;;;;;4.40;2.20;;;;;;;;;;5027902;28;20105;-69
2022/01/23 19:27:55;;;;;;;5.35;3.10;;;;;;;;;;5029012;28;20013;-80
2022/01/23 19:30:43;;;;;;;4.50;2.25;;;;;;;;;;5017433;28;20033;-76
2022/01/23 19:33:28;;;;;;;4.00;2.45;;;;;;;;;;5024731;28;20413;-76
2022/01/23 19:36:13;;;;;;;4.63;2.03;;;;;;;;;;5014706;28;20044;-73
2022/01/23 19:39:00;;;;;;;4.38;2.25;;;;;;;;;;5029018;28;20032;-72
2022/01/23 19:41:56;;;;;;;4.80;2.42;;;;;;;;;;5010867;28;20042;-73
2022/01/23 19:44:46;;;;;;;4.97;2.53;;;;;;;;;;5027340;28;20021;-79
2022/01/23 19:50:17;;;;;;;7.28;2.92;;;;;;;;;;5025882;28;20022;-71
2022/01/23 19:53:02;;;;;;;4.20;2.20;;;;;;;;;;5028551;28;20113;-72
2022/01/23 19:55:47;;;;;;;4.00;2.20;;;;;;;;;;5025034;28;20445;-71
2022/01/23 19:58:35;;;;;;;4.70;2.28;;;;;;;;;;5017350;28;20026;-69
2022/01/23 20:01:20;;;;;;;3.88;2.22;;;;;;;;;;5028618;28;20092;-71
2022/01/23 20:04:05;;;;;;;4.47;2.33;;;;;;;;;;5029325;28;20057;-72